Terminal Aerodrome Forecast
Issued by NWS Twin Cities, MN

Home | Current Version | Previous Version | Graphics & Text | Print | Product List | Glossary On
Versions: 1 2 3 4 5 6 7 8 9 10 11 12 13 14 15 16 17 18 19 20 21 22 23 24
000
FTUS43 KMPX 221400 AAA
TAFSTC
TAF AMD
KSTC 221428Z 2214/2312 36004KT P6SM OVC005
     FM221700 01005KT P6SM BKN015
     FM221900 02005KT P6SM SCT030
     FM230600 04002KT 2SM BR SCT003
     FM230800 05003KT 1/2SM FG VV002=

USA.gov is the U.S. government's official web portal to all federal, state and local government web resources and services.